createdAt,value
2019-02-23T00:00:42.932Z,2.10
2019-02-23T00:03:11.567Z,2.15
2019-02-23T00:05:40.289Z,3.05
2019-02-23T00:08:09.029Z,3.77
2019-02-23T00:10:38.045Z,2.70
2019-02-23T00:13:07.512Z,2.60
2019-02-23T00:15:36.503Z,2.33
2019-02-23T00:18:06.618Z,4.42
2019-02-23T00:20:36.930Z,9.50
2019-02-23T00:23:06.169Z,5.30
2019-02-23T00:25:35.451Z,3.37
2019-02-23T00:28:04.972Z,3.92
2019-02-23T00:30:34.078Z,6.60
2019-02-23T00:33:03.222Z,6.62
2019-02-23T00:35:32.362Z,4.90
2019-02-23T00:38:01.417Z,12.70
2019-02-23T00:40:30.634Z,5.80
2019-02-23T00:42:59.291Z,4.10
2019-02-23T00:45:29.208Z,3.25
2019-02-23T00:47:57.739Z,4.33
2019-02-23T00:50:27.268Z,3.40
2019-02-23T00:52:55.829Z,3.55
2019-02-23T00:55:24.879Z,3.75
2019-02-23T00:57:54.191Z,5.20
2019-02-23T01:00:23.397Z,13.90
2019-02-23T01:02:52.315Z,6.58
2019-02-23T01:05:21.575Z,6.58
2019-02-23T01:07:50.992Z,5.42
2019-02-23T01:10:20.646Z,5.95
2019-02-23T01:12:50.017Z,5.45
2019-02-23T01:15:19.095Z,5.50
2019-02-23T01:17:49.297Z,10.68
2019-02-23T01:20:19.915Z,8.35
2019-02-23T01:22:49.032Z,6.37
2019-02-23T01:25:18.242Z,7.85
2019-02-23T01:27:46.880Z,8.13
2019-02-23T01:30:17.001Z,18.77
2019-02-23T01:32:45.541Z,7.12
2019-02-23T01:35:14.261Z,11.38
2019-02-23T01:37:43.519Z,10.25
2019-02-23T01:40:12.892Z,10.45
2019-02-23T01:42:42.126Z,10.78
2019-02-23T01:45:11.475Z,8.25
2019-02-23T01:47:40.760Z,6.62
2019-02-23T01:50:09.645Z,6.30
2019-02-23T01:52:39.005Z,5.30
2019-02-23T01:55:08.564Z,6.00
2019-02-23T01:57:37.872Z,8.30
2019-02-23T02:00:09.876Z,9.60
2019-02-23T02:02:39.554Z,7.80
2019-02-23T02:05:10.040Z,8.50
2019-02-23T02:07:39.204Z,7.08
2019-02-23T02:10:09.807Z,8.03
2019-02-23T02:12:39.275Z,8.23
2019-02-23T02:15:10.755Z,6.92
2019-02-23T02:17:39.629Z,6.50
2019-02-23T02:20:11.241Z,6.80
2019-02-23T02:22:39.704Z,6.97
2019-02-23T02:25:09.266Z,6.55
2019-02-23T02:27:38.146Z,6.20
2019-02-23T02:30:09.700Z,6.50
2019-02-23T02:32:38.949Z,11.80
2019-02-23T02:35:09.328Z,7.35
2019-02-23T02:37:39.473Z,24.32
2019-02-23T02:40:09.464Z,13.83
2019-02-23T02:42:38.628Z,7.03
2019-02-23T02:45:10.009Z,14.53
2019-02-23T02:47:39.490Z,9.23
2019-02-23T02:50:09.715Z,19.55
2019-02-23T02:52:39.087Z,11.10
2019-02-23T02:55:10.127Z,9.95
2019-02-23T02:57:38.755Z,7.25
2019-02-23T03:00:10.297Z,8.00
2019-02-23T03:02:38.841Z,10.93
2019-02-23T03:05:08.159Z,13.72
2019-02-23T03:07:38.269Z,11.95
2019-02-23T03:10:07.638Z,10.32
2019-02-23T03:12:36.928Z,10.40
2019-02-23T03:15:07.363Z,10.70
2019-02-23T03:17:37.354Z,9.90
2019-02-23T03:20:07.706Z,9.35
2019-02-23T03:22:37.013Z,10.08
2019-02-23T03:25:06.801Z,11.10
2019-02-23T03:27:36.011Z,9.95
2019-02-23T03:30:07.413Z,12.30
2019-02-23T03:32:36.712Z,10.28
2019-02-23T03:35:06.159Z,9.85
2019-02-23T03:37:35.718Z,10.98
2019-02-23T03:40:06.625Z,9.73
2019-02-23T03:42:35.920Z,9.33
2019-02-23T03:45:05.976Z,10.98
2019-02-23T03:47:35.103Z,10.05
2019-02-23T03:50:05.273Z,10.90
2019-02-23T03:52:35.256Z,11.25
2019-02-23T03:55:04.699Z,10.80
2019-02-23T03:57:34.036Z,11.97
2019-02-23T04:00:03.158Z,9.95
2019-02-23T04:02:32.579Z,10.63
2019-02-23T04:05:01.879Z,9.85
2019-02-23T04:07:31.165Z,10.70
2019-02-23T04:10:00.609Z,11.25
2019-02-23T04:12:29.910Z,13.55
2019-02-23T04:14:59.314Z,20.45
2019-02-23T04:17:28.521Z,21.87
2019-02-23T04:19:57.659Z,17.42
2019-02-23T04:22:26.913Z,17.37
2019-02-23T04:24:55.552Z,16.02
2019-02-23T04:27:24.219Z,15.25
2019-02-23T04:29:53.058Z,25.05
2019-02-23T04:32:22.347Z,28.87
2019-02-23T04:34:51.007Z,20.85
2019-02-23T04:37:20.672Z,16.40
2019-02-23T04:39:49.797Z,17.40
2019-02-23T04:42:19.268Z,20.68
2019-02-23T04:44:48.962Z,13.25
2019-02-23T04:47:18.180Z,13.22
2019-02-23T04:49:52.886Z,11.03
2019-02-23T04:52:21.825Z,15.13
2019-02-23T04:54:50.690Z,14.87
2019-02-23T04:57:20.157Z,14.20
2019-02-23T04:59:49.681Z,17.82
2019-02-23T05:02:19.170Z,18.27
2019-02-23T05:04:48.541Z,14.00
2019-02-23T05:07:17.454Z,16.25
2019-02-23T05:09:46.433Z,15.00
2019-02-23T05:12:16.182Z,14.90
2019-02-23T05:14:45.280Z,17.40
2019-02-23T05:17:14.122Z,16.02
2019-02-23T05:19:43.141Z,15.13
2019-02-23T05:22:12.034Z,15.32
2019-02-23T05:24:40.814Z,13.78
2019-02-23T05:27:09.743Z,16.00
2019-02-23T05:29:38.596Z,16.32
2019-02-23T05:32:07.987Z,16.37
2019-02-23T05:34:37.396Z,13.58
2019-02-23T05:37:06.905Z,13.65
2019-02-23T05:39:36.432Z,14.68
2019-02-23T05:42:06.332Z,11.90
2019-02-23T05:44:35.413Z,12.10
2019-02-23T05:47:05.092Z,12.25
2019-02-23T05:49:36.782Z,12.53
2019-02-23T05:52:04.885Z,14.28
2019-02-23T05:54:33.847Z,14.03
2019-02-23T05:57:02.416Z,13.08
2019-02-23T05:59:31.355Z,11.22
2019-02-23T06:02:01.676Z,12.50
2019-02-23T06:04:30.473Z,10.90
2019-02-23T06:06:59.456Z,13.30
2019-02-23T06:09:28.813Z,13.68
2019-02-23T06:11:57.803Z,14.65
2019-02-23T06:14:26.773Z,15.95
2019-02-23T06:16:55.447Z,15.98
2019-02-23T06:19:24.113Z,23.57
2019-02-23T06:21:54.558Z,17.45
2019-02-23T06:24:23.537Z,13.65
2019-02-23T06:26:52.486Z,10.45
2019-02-23T06:29:21.321Z,13.78
2019-02-23T06:31:50.311Z,9.65
2019-02-23T06:34:19.471Z,11.08
2019-02-23T06:36:48.559Z,10.75
2019-02-23T06:39:18.661Z,8.45
2019-02-23T06:41:47.659Z,9.05
2019-02-23T06:44:16.499Z,8.75
2019-02-23T06:46:45.357Z,8.98
2019-02-23T06:49:14.412Z,7.75
2019-02-23T06:51:44.389Z,9.25
2019-02-23T06:54:14.625Z,8.25
2019-02-23T06:56:43.644Z,8.18
2019-02-23T06:59:12.466Z,8.55
2019-02-23T07:01:41.343Z,9.55
2019-02-23T07:04:10.576Z,8.10
2019-02-23T07:06:39.488Z,8.05
2019-02-23T07:09:08.575Z,10.43
2019-02-23T07:11:37.737Z,18.85
2019-02-23T07:14:06.900Z,19.65
2019-02-23T07:16:36.062Z,18.52
2019-02-23T07:19:04.953Z,17.30
2019-02-23T07:21:33.838Z,19.37
2019-02-23T07:24:02.749Z,23.00
2019-02-23T07:26:31.326Z,18.48
2019-02-23T07:28:59.982Z,17.80
2019-02-23T07:31:28.618Z,15.75
2019-02-23T07:33:57.868Z,11.10
2019-02-23T07:36:26.937Z,16.70
2019-02-23T07:38:55.973Z,16.77
2019-02-23T07:41:24.665Z,12.10
2019-02-23T07:43:53.494Z,10.85
2019-02-23T07:46:22.238Z,19.52
2019-02-23T07:48:51.313Z,19.67
2019-02-23T07:51:20.058Z,13.68
2019-02-23T07:53:48.908Z,12.85
2019-02-23T07:56:17.886Z,9.78
2019-02-23T07:58:48.037Z,10.85
2019-02-23T08:01:17.250Z,9.68
2019-02-23T08:03:46.396Z,9.33
2019-02-23T08:06:15.632Z,9.43
2019-02-23T08:08:44.496Z,11.15
2019-02-23T08:11:13.270Z,9.35
2019-02-23T08:13:42.109Z,8.45
2019-02-23T08:16:10.948Z,8.85
2019-02-23T08:18:39.817Z,8.50
2019-02-23T08:21:08.627Z,8.15
2019-02-23T08:23:38.627Z,9.40
2019-02-23T08:26:07.540Z,8.33
2019-02-23T08:28:36.469Z,9.80
2019-02-23T08:31:05.464Z,9.68
2019-02-23T08:33:34.512Z,8.43
2019-02-23T08:36:03.816Z,10.00
2019-02-23T08:38:32.804Z,11.40
2019-02-23T08:41:01.907Z,14.00
2019-02-23T08:43:30.680Z,17.05
2019-02-23T08:45:59.464Z,16.82
2019-02-23T08:48:28.546Z,16.15
2019-02-23T08:50:57.296Z,16.07
2019-02-23T08:53:26.355Z,15.10
2019-02-23T08:55:55.117Z,15.10
2019-02-23T08:58:24.325Z,17.65
2019-02-23T09:00:53.048Z,21.90
2019-02-23T09:03:22.208Z,18.17
2019-02-23T09:05:50.984Z,19.48
2019-02-23T09:08:19.785Z,21.45
2019-02-23T09:10:50.274Z,18.80
2019-02-23T09:13:19.199Z,21.27
2019-02-23T09:15:48.091Z,18.07
2019-02-23T09:18:17.184Z,17.50
2019-02-23T09:20:46.284Z,15.95
2019-02-23T09:23:15.061Z,22.20
2019-02-23T09:25:43.744Z,19.10
2019-02-23T09:28:13.001Z,17.80
2019-02-23T09:30:41.777Z,18.05
2019-02-23T09:33:10.861Z,19.30
2019-02-23T09:35:39.957Z,18.30
2019-02-23T09:38:09.123Z,18.65
2019-02-23T09:40:38.030Z,19.10
2019-02-23T09:43:07.924Z,16.10
2019-02-23T09:45:37.605Z,18.42
2019-02-23T09:48:06.641Z,16.07
2019-02-23T09:50:35.528Z,17.27
2019-02-23T09:53:11.222Z,17.52
2019-02-23T09:55:37.305Z,16.52
2019-02-23T09:58:06.467Z,19.15
2019-02-23T10:00:36.627Z,19.85
2019-02-23T10:03:05.600Z,19.35
2019-02-23T10:05:34.492Z,19.92
2019-02-23T10:08:03.747Z,18.92
2019-02-23T10:10:32.538Z,22.62
2019-02-23T10:13:01.701Z,18.87
2019-02-23T10:15:31.694Z,19.42
2019-02-23T10:18:00.786Z,18.42
2019-02-23T10:20:30.134Z,19.62
2019-02-23T10:22:58.685Z,14.35
2019-02-23T10:25:27.345Z,14.13
2019-02-23T10:27:59.114Z,11.78
2019-02-23T10:30:26.847Z,8.58
2019-02-23T10:32:55.732Z,9.98
2019-02-23T10:35:24.792Z,9.75
2019-02-23T10:37:53.951Z,10.10
2019-02-23T10:40:24.016Z,11.93
2019-02-23T10:42:53.075Z,10.20
2019-02-23T10:45:22.248Z,12.30
2019-02-23T10:47:51.313Z,12.90
2019-02-23T10:50:20.357Z,18.40
2019-02-23T10:52:49.124Z,22.13
2019-02-23T10:55:18.407Z,17.40
2019-02-23T10:57:47.465Z,17.50
2019-02-23T11:00:21.248Z,16.52
2019-02-23T11:02:50.234Z,17.73
2019-02-23T11:05:19.341Z,24.90
2019-02-23T11:07:49.035Z,17.73
2019-02-23T11:10:17.863Z,16.48
2019-02-23T11:12:46.794Z,16.82
2019-02-23T11:15:17.648Z,16.93
2019-02-23T11:17:47.554Z,19.30
2019-02-23T11:20:17.363Z,17.00
2019-02-23T11:22:46.415Z,17.48
2019-02-23T11:25:15.549Z,16.27
2019-02-23T11:27:44.444Z,20.23
2019-02-23T11:30:16.814Z,17.50
2019-02-23T11:32:45.833Z,18.90
2019-02-23T11:35:17.466Z,16.55
2019-02-23T11:37:46.492Z,17.55
2019-02-23T11:40:16.144Z,18.17
2019-02-23T11:42:45.075Z,18.05
2019-02-23T11:45:14.036Z,18.05
2019-02-23T11:47:43.089Z,17.45
2019-02-23T11:50:13.388Z,18.05
2019-02-23T11:52:42.710Z,17.12
2019-02-23T11:55:11.968Z,18.75
2019-02-23T11:57:41.352Z,16.77
2019-02-23T12:00:11.982Z,16.82
2019-02-23T12:02:51.783Z,18.15
2019-02-23T12:05:12.472Z,19.00
2019-02-23T12:07:41.769Z,20.10
2019-02-23T12:10:15.407Z,19.57
2019-02-23T12:12:44.737Z,22.90
2019-02-23T12:15:13.741Z,18.37
2019-02-23T12:17:42.811Z,16.60
2019-02-23T12:20:12.754Z,17.02
2019-02-23T12:22:41.517Z,17.52
2019-02-23T12:25:13.055Z,19.07
2019-02-23T12:27:41.246Z,20.05
2019-02-23T12:30:11.506Z,20.70
2019-02-23T12:32:40.455Z,17.15
2019-02-23T12:35:11.373Z,18.87
2019-02-23T12:37:40.531Z,17.75
2019-02-23T12:40:10.267Z,15.58
2019-02-23T12:42:39.030Z,17.40
2019-02-23T12:45:12.787Z,17.42
2019-02-23T12:47:41.813Z,17.25
2019-02-23T12:50:12.699Z,19.60
2019-02-23T12:52:41.867Z,19.32
2019-02-23T12:55:11.825Z,19.17
2019-02-23T12:57:42.148Z,21.27
2019-02-23T13:00:18.872Z,22.80
2019-02-23T13:02:48.120Z,22.30
2019-02-23T13:05:18.237Z,21.85
2019-02-23T13:07:47.936Z,19.87
2019-02-23T13:10:16.874Z,19.25
2019-02-23T13:12:58.373Z,18.65
2019-02-23T13:15:48.353Z,15.32
2019-02-23T13:18:51.356Z,13.05
2019-02-23T13:21:35.163Z,12.30
2019-02-23T13:24:28.270Z,10.45
2019-02-23T13:27:01.869Z,6.50
2019-02-23T13:29:53.695Z,6.08
2019-02-23T13:32:44.437Z,6.15
2019-02-23T13:35:29.007Z,7.33
2019-02-23T13:38:03.729Z,6.58
2019-02-23T13:41:00.111Z,5.03
2019-02-23T13:43:34.867Z,5.05
2019-02-23T13:46:13.066Z,4.87
2019-02-23T13:48:48.006Z,4.78
2019-02-23T13:51:53.859Z,4.50
2019-02-23T13:54:44.006Z,4.12
2019-02-23T13:57:25.220Z,5.03
2019-02-23T14:00:03.574Z,5.37
2019-02-23T14:02:55.178Z,6.83
2019-02-23T14:05:43.365Z,5.92
2019-02-23T14:08:30.081Z,7.85
2019-02-23T14:11:18.661Z,7.72
2019-02-23T14:13:57.438Z,7.45
2019-02-23T14:16:35.035Z,6.35
2019-02-23T14:19:09.988Z,5.78
2019-02-23T14:21:50.417Z,7.17
2019-02-23T14:24:49.878Z,7.60
2019-02-23T14:27:35.152Z,6.80
2019-02-23T14:30:30.228Z,8.73
2019-02-23T14:33:23.703Z,8.35
2019-02-23T14:35:58.549Z,8.70
2019-02-23T14:39:04.418Z,9.03
2019-02-23T14:41:42.333Z,7.45
2019-02-23T14:44:18.530Z,7.40
2019-02-23T14:46:59.559Z,10.15
2019-02-23T14:49:40.270Z,8.50
2019-02-23T14:52:27.775Z,10.08
2019-02-23T14:55:08.359Z,10.43
2019-02-23T14:57:49.809Z,10.13
2019-02-23T15:00:39.562Z,7.62
2019-02-23T15:03:26.344Z,9.15
2019-02-23T15:06:14.574Z,9.00
2019-02-23T15:08:59.016Z,7.80
2019-02-23T15:11:47.914Z,6.90
2019-02-23T15:14:25.876Z,8.30
2019-02-23T15:17:14.408Z,8.98
2019-02-23T15:20:05.736Z,6.60
2019-02-23T15:22:54.199Z,7.90
2019-02-23T15:25:43.797Z,10.82
2019-02-23T15:28:35.825Z,13.15
2019-02-23T15:30:55.738Z,13.78
2019-02-23T15:33:48.497Z,10.28
2019-02-23T15:36:23.119Z,7.30
2019-02-23T15:39:17.257Z,6.83
2019-02-23T15:42:06.997Z,6.12
2019-02-23T15:45:12.566Z,5.85
2019-02-23T15:48:19.671Z,5.08
2019-02-23T15:50:48.876Z,6.50
2019-02-23T15:53:17.991Z,5.50
2019-02-23T15:55:48.070Z,6.78
2019-02-23T15:58:17.065Z,6.30
2019-02-23T16:00:46.231Z,8.20
2019-02-23T16:03:16.067Z,7.05
2019-02-23T16:05:44.911Z,7.28
2019-02-23T16:08:13.848Z,18.30
2019-02-23T16:10:43.304Z,8.93
2019-02-23T16:13:12.125Z,9.48
2019-02-23T16:18:09.038Z,9.60
2019-02-23T16:20:37.885Z,9.35
2019-02-23T16:23:06.660Z,9.28
2019-02-23T16:25:39.300Z,10.55
2019-02-23T16:28:06.171Z,11.53
2019-02-23T16:30:35.343Z,9.23
2019-02-23T16:33:04.489Z,9.85
2019-02-23T16:35:33.326Z,8.70
2019-02-23T16:38:02.400Z,7.58
2019-02-23T16:40:32.800Z,8.08
2019-02-23T16:43:02.647Z,8.45
2019-02-23T16:45:31.631Z,6.60
2019-02-23T16:48:01.492Z,8.35
2019-02-23T16:50:31.430Z,7.97
2019-02-23T16:53:00.308Z,6.45
2019-02-23T16:55:29.250Z,7.37
2019-02-23T16:57:58.000Z,6.33
2019-02-23T17:00:27.073Z,6.92
2019-02-23T17:02:56.549Z,6.15
2019-02-23T17:05:25.175Z,4.92
2019-02-23T17:07:55.107Z,5.75
2019-02-23T17:10:28.094Z,5.42
2019-02-23T17:12:57.936Z,4.97
2019-02-23T17:15:30.805Z,4.97
2019-02-23T17:17:59.252Z,5.12
2019-02-23T17:20:28.540Z,28.12
2019-02-23T17:22:57.373Z,5.45
2019-02-23T17:25:26.261Z,4.53
2019-02-23T17:27:55.717Z,7.80
2019-02-23T17:30:24.985Z,5.10
2019-02-23T17:32:54.260Z,4.72
2019-02-23T17:35:23.133Z,4.00
2019-02-23T17:37:51.926Z,3.10
2019-02-23T17:40:20.819Z,3.75
2019-02-23T17:42:50.009Z,3.58
2019-02-23T17:45:19.003Z,4.08
2019-02-23T17:47:48.063Z,3.55
2019-02-23T17:50:17.285Z,11.68
2019-02-23T17:52:45.906Z,8.03
2019-02-23T17:55:14.989Z,3.77
2019-02-23T17:57:44.030Z,3.90
2019-02-23T18:00:14.617Z,4.08
2019-02-23T18:02:43.581Z,4.75
2019-02-23T18:05:12.423Z,3.55
2019-02-23T18:07:41.224Z,3.77
2019-02-23T18:10:10.345Z,3.85
2019-02-23T18:12:39.454Z,4.78
2019-02-23T18:15:10.589Z,4.60
2019-02-23T18:17:39.669Z,4.87
2019-02-23T18:20:11.045Z,4.65
2019-02-23T18:22:39.922Z,4.70
2019-02-23T18:25:10.172Z,3.60
2019-02-23T18:27:39.198Z,3.65
2019-02-23T18:30:11.390Z,3.50
2019-02-23T18:32:40.315Z,3.10
2019-02-23T18:35:09.345Z,3.40
2019-02-23T18:37:38.477Z,3.07
2019-02-23T18:40:08.466Z,3.90
2019-02-23T18:42:37.558Z,3.10
2019-02-23T18:45:08.290Z,3.43
2019-02-23T18:47:37.332Z,3.20
2019-02-23T18:50:08.660Z,3.87
2019-02-23T18:52:37.830Z,7.13
2019-02-23T18:55:09.268Z,4.37
2019-02-23T18:57:38.342Z,10.60
2019-02-23T19:00:10.137Z,2.73
2019-02-23T19:02:39.238Z,3.73
2019-02-23T19:05:10.712Z,3.17
2019-02-23T19:07:39.717Z,2.43
2019-02-23T19:10:13.371Z,2.50
2019-02-23T19:12:42.260Z,3.60
2019-02-23T19:15:15.349Z,2.80
2019-02-23T19:17:44.423Z,4.80
2019-02-23T19:20:15.844Z,2.60
2019-02-23T19:22:44.577Z,2.87
2019-02-23T19:25:14.724Z,2.40
2019-02-23T19:27:43.492Z,3.27
2019-02-23T19:30:13.603Z,2.50
2019-02-23T19:32:42.821Z,2.63
2019-02-23T19:35:12.302Z,2.53
2019-02-23T19:37:41.194Z,18.00
2019-02-23T19:40:10.838Z,5.73
2019-02-23T19:42:39.850Z,10.53
2019-02-23T19:45:10.320Z,3.13
2019-02-23T19:47:41.530Z,8.00
2019-02-23T19:50:19.217Z,6.43
2019-02-23T19:52:48.046Z,6.87
2019-02-23T19:55:17.379Z,6.20
2019-02-23T19:57:45.942Z,3.30
2019-02-23T20:00:14.512Z,3.80
2019-02-23T20:02:43.226Z,3.93
2019-02-23T20:05:12.044Z,4.80
2019-02-23T20:07:40.830Z,6.20
2019-02-23T20:10:10.699Z,5.63
2019-02-23T20:12:39.451Z,4.95
2019-02-23T20:15:09.928Z,3.10
2019-02-23T20:17:38.996Z,3.05
2019-02-23T20:20:08.494Z,3.42
2019-02-23T20:22:37.653Z,3.45
2019-02-23T20:25:08.530Z,4.40
2019-02-23T20:27:38.363Z,4.37
2019-02-23T20:30:10.083Z,4.72
2019-02-23T20:32:38.895Z,4.97
2019-02-23T20:35:09.002Z,3.67
2019-02-23T20:37:37.800Z,4.03
2019-02-23T20:40:09.648Z,3.60
2019-02-23T20:42:38.536Z,3.60
2019-02-23T20:45:09.183Z,4.30
2019-02-23T20:47:37.833Z,3.57
2019-02-23T20:50:09.058Z,3.13
2019-02-23T20:52:38.207Z,3.30
2019-02-23T20:55:08.721Z,3.23
2019-02-23T20:57:37.957Z,3.10
2019-02-23T21:00:09.510Z,2.90
2019-02-23T21:02:38.344Z,3.87
2019-02-23T21:05:10.017Z,4.50
2019-02-23T21:07:39.254Z,3.60
2019-02-23T21:10:09.639Z,4.57
2019-02-23T21:12:38.637Z,2.83
2019-02-23T21:15:09.498Z,4.90
2019-02-23T21:17:39.635Z,2.30
2019-02-23T21:20:09.552Z,2.27
2019-02-23T21:22:38.920Z,20.00
2019-02-23T21:25:08.692Z,8.20
2019-02-23T21:27:37.346Z,3.20
2019-02-23T21:30:08.503Z,2.20
2019-02-23T21:32:37.657Z,3.30
2019-02-23T21:35:07.905Z,2.10
2019-02-23T21:37:37.178Z,2.00
2019-02-23T21:40:09.387Z,1.87
2019-02-23T21:42:38.306Z,2.73
2019-02-23T21:45:09.571Z,2.87
2019-02-23T21:47:38.406Z,2.50
2019-02-23T21:50:09.606Z,2.60
2019-02-23T21:52:39.689Z,3.47
2019-02-23T21:55:08.762Z,2.93
2019-02-23T21:57:37.781Z,2.70
2019-02-23T22:00:08.880Z,2.40
2019-02-23T22:02:37.855Z,2.57
2019-02-23T22:05:12.306Z,2.00
2019-02-23T22:07:38.188Z,2.20
2019-02-23T22:10:10.006Z,2.50
2019-02-23T22:12:38.696Z,2.67
2019-02-23T22:15:07.876Z,3.03
2019-02-23T22:17:36.603Z,2.60
2019-02-23T22:20:07.371Z,2.37
2019-02-23T22:22:36.079Z,1.93
2019-02-23T22:25:05.255Z,2.97
2019-02-23T22:27:34.062Z,2.57
2019-02-23T22:30:03.584Z,2.40
2019-02-23T22:32:32.745Z,2.13
2019-02-23T22:35:01.984Z,2.40
2019-02-23T22:37:31.186Z,2.80
2019-02-23T22:40:00.271Z,3.03
2019-02-23T22:42:29.519Z,4.75
2019-02-23T22:44:58.512Z,5.85
2019-02-23T22:47:28.539Z,4.30
2019-02-23T22:49:57.444Z,3.95
2019-02-23T22:52:27.716Z,3.22
2019-02-23T22:54:56.255Z,3.25
2019-02-23T22:57:24.783Z,3.50
2019-02-23T22:59:53.417Z,3.22
2019-02-23T23:02:22.187Z,3.33
2019-02-23T23:04:52.039Z,3.63
2019-02-23T23:07:22.213Z,3.98
2019-02-23T23:09:50.855Z,4.05
2019-02-23T23:12:20.135Z,3.00
2019-02-23T23:14:49.055Z,3.20
2019-02-23T23:17:18.001Z,2.75
2019-02-23T23:19:47.117Z,2.58
2019-02-23T23:22:16.272Z,3.30
2019-02-23T23:24:45.050Z,4.15
2019-02-23T23:27:13.861Z,6.30
2019-02-23T23:29:43.030Z,5.05
2019-02-23T23:32:12.064Z,4.62
2019-02-23T23:34:41.130Z,4.15
2019-02-23T23:37:10.181Z,4.28
2019-02-23T23:39:39.370Z,4.53
2019-02-23T23:42:08.118Z,6.12
2019-02-23T23:44:37.012Z,8.85
2019-02-23T23:47:05.641Z,5.15
2019-02-23T23:49:34.173Z,6.45
2019-02-23T23:52:03.337Z,6.60
2019-02-23T23:54:32.453Z,4.40
2019-02-23T23:57:01.751Z,5.42
2019-02-23T23:59:30.796Z,5.83
